Time;durP1;ratioP1;P1;durP2;ratioP2;P2;SDS_P1;SDS_P2;PMS_P1;PMS_P2;Temp;Humidity;BMP_temperature;BMP_pressure;BME280_temperature;BME280_humidity;BME280_pressure;Samples;Min_cycle;Max_cycle;Signal;HPM_P1;HPM_P2
2021/12/17 00:04:59;;;;;;;22.10;3.50;;;;;;;2.54;100.00;101150.64;101568;1319;59748;-67
2021/12/17 00:07:48;;;;;;;21.80;3.30;;;;;;;2.53;100.00;101151.02;101852;1319;74751;-67
2021/12/17 00:10:37;;;;;;;23.10;4.10;;;;;;;2.50;100.00;101139.71;101856;1319;68323;-67
2021/12/17 00:13:27;;;;;;;22.30;3.60;;;;;;;2.48;100.00;101138.19;101760;1316;73092;-67
2021/12/17 00:16:21;;;;;;;21.50;3.50;;;;;;;2.46;100.00;101142.08;101934;1316;60027;-67
2021/12/17 00:19:51;;;;;;;14.10;2.60;;;;;;;2.45;100.00;101145.80;101986;1316;59696;-67
2021/12/17 00:53:52;;;;;;;18.80;3.10;;;;;;;2.35;100.00;101174.94;101915;1316;73148;-67
2021/12/17 00:56:40;;;;;;;17.30;2.50;;;;;;;2.35;100.00;101175.83;101711;1316;68454;-67
2021/12/17 00:59:29;;;;;;;19.60;3.00;;;;;;;2.35;100.00;101181.80;101365;1319;73401;-67
2021/12/17 01:02:29;;;;;;;17.30;2.80;;;;;;;2.32;100.00;101184.99;101972;1323;59847;-67
2021/12/17 01:05:25;;;;;;;19.40;3.60;;;;;;;2.30;100.00;101189.42;101408;1318;61004;-67
2021/12/17 01:08:15;;;;;;;20.80;3.40;;;;;;;2.30;100.00;101194.52;101517;1319;73567;-67
2021/12/17 01:11:05;;;;;;;16.50;2.80;;;;;;;2.30;100.00;101193.48;101651;1316;68340;-67
2021/12/17 01:13:55;;;;;;;19.20;2.90;;;;;;;2.29;100.00;101197.86;101627;1319;73167;-67
2021/12/17 01:17:10;;;;;;;15.40;2.90;;;;;;;2.26;100.00;101196.55;101932;1316;59829;-67
2021/12/17 01:23:40;;;;;;;15.10;2.60;;;;;;;2.22;100.00;101182.80;101598;1320;74191;-67
2021/12/17 01:43:14;;;;;;;14.40;2.30;;;;;;;2.29;100.00;101166.70;101763;1316;67015;-67
2021/12/17 01:46:05;;;;;;;13.70;2.70;;;;;;;2.30;100.00;101165.80;101935;1316;71721;-67
2021/12/17 02:01:16;;;;;;;17.10;2.60;;;;;;;2.26;100.00;101170.80;101752;1322;73196;-67
2021/12/17 02:04:06;;;;;;;15.90;2.30;;;;;;;2.23;100.00;101164.91;101766;1320;59900;-67
2021/12/17 02:06:58;;;;;;;14.00;2.40;;;;;;;2.19;100.00;101169.40;101728;1316;59756;-67
2021/12/17 02:19:24;;;;;;;15.70;2.70;;;;;;;2.15;100.00;101167.40;101584;1317;69364;-67
2021/12/17 02:28:49;;;;;;;18.70;3.00;;;;;;;2.15;100.00;101170.89;101872;1316;67260;-67
2021/12/17 02:31:38;;;;;;;16.20;2.30;;;;;;;2.14;100.00;101168.83;101651;1319;71587;-67
2021/12/17 02:37:44;;;;;;;28.00;5.80;;;;;;;2.14;100.00;101167.42;101946;1319;60736;-67
2021/12/17 02:47:38;;;;;;;49.50;17.60;;;;;;;2.14;100.00;101183.03;101821;1317;72670;-67
2021/12/17 02:50:27;;;;;;;23.00;7.00;;;;;;;2.14;100.00;101187.22;101778;1317;59728;-67
2021/12/17 02:53:18;;;;;;;14.00;3.50;;;;;;;2.13;100.00;101181.11;101626;1319;59782;-67
2021/12/17 02:56:08;;;;;;;14.50;2.40;;;;;;;2.13;100.00;101183.04;101995;1316;72567;-66
2021/12/17 02:58:57;;;;;;;23.70;8.70;;;;;;;2.13;100.00;101181.81;101818;1316;67276;-67
2021/12/17 03:01:48;;;;;;;21.80;7.40;;;;;;;2.13;100.00;101177.95;101591;1320;72099;-66
2021/12/17 03:04:41;;;;;;;28.70;9.10;;;;;;;2.11;100.00;101174.88;101769;1319;59816;-67
2021/12/17 03:07:34;;;;;;;21.00;6.70;;;;;;;2.09;100.00;101177.38;101518;1317;59626;-67
2021/12/17 03:10:24;;;;;;;13.50;4.20;;;;;;;2.08;100.00;101178.79;101800;1316;75077;-67
2021/12/17 03:13:18;;;;;;;15.80;3.20;;;;;;;2.07;100.00;101177.40;101815;1319;67668;-67
2021/12/17 03:16:13;;;;;;;11.30;2.40;;;;;;;2.03;100.00;101176.29;101844;1323;71494;-67
2021/12/17 03:19:08;;;;;;;15.10;2.60;;;;;;;2.00;100.00;101169.70;101575;1319;59849;-67
2021/12/17 03:25:05;;;;;;;16.40;3.10;;;;;;;1.95;100.00;101176.30;101897;1322;73731;-67
2021/12/17 03:27:55;;;;;;;17.10;2.60;;;;;;;1.94;100.00;101179.84;101620;1317;67197;-68
2021/12/17 03:30:46;;;;;;;12.00;2.00;;;;;;;1.92;100.00;101176.89;101533;1319;73129;-67
2021/12/17 03:33:38;;;;;;;14.00;2.30;;;;;;;1.89;100.00;101168.57;101675;1319;59810;-67
2021/12/17 03:36:28;;;;;;;14.40;2.30;;;;;;;1.84;100.00;101165.52;101824;1316;60590;-67
2021/12/17 03:39:16;;;;;;;18.20;2.90;;;;;;;1.80;100.00;101161.08;101954;1319;74193;-67
2021/12/17 03:42:07;;;;;;;10.80;2.30;;;;;;;1.76;100.00;101160.66;101712;1320;65802;-68
2021/12/17 03:44:58;;;;;;;15.20;2.50;;;;;;;1.72;100.00;101164.77;101529;1317;73346;-67
2021/12/17 03:48:19;;;;;;;13.20;2.20;;;;;;;1.69;100.00;101172.36;101790;1316;59857;-69
2021/12/17 03:51:15;;;;;;;12.70;2.30;;;;;;;1.68;100.00;101166.79;101631;1316;60908;-67
2021/12/17 03:54:04;;;;;;;13.40;2.10;;;;;;;1.68;100.00;101164.16;101781;1317;72190;-67
2021/12/17 03:56:54;;;;;;;14.50;2.90;;;;;;;1.67;100.00;101155.08;101735;1317;68492;-67
2021/12/17 03:59:44;;;;;;;12.60;2.50;;;;;;;1.66;100.00;101157.20;101632;1316;73236;-67
2021/12/17 04:02:32;;;;;;;12.40;2.00;;;;;;;1.64;100.00;101157.09;101935;1316;59704;-67
2021/12/17 04:05:22;;;;;;;14.80;2.30;;;;;;;1.64;100.00;101152.54;101791;1319;59785;-67
2021/12/17 04:08:40;;;;;;;11.80;2.00;;;;;;;1.64;100.00;101157.27;101704;1319;73291;-67
2021/12/17 04:11:50;;;;;;;10.80;1.90;;;;;;;1.64;100.00;101152.35;101721;1316;68479;-67
2021/12/17 04:14:48;;;;;;;14.00;2.30;;;;;;;1.64;100.00;101150.08;101639;1316;70836;-67
2021/12/17 04:17:54;;;;;;;11.40;2.20;;;;;;;1.64;100.00;101154.46;101586;1319;59730;-67
2021/12/17 04:20:43;;;;;;;10.50;2.10;;;;;;;1.63;100.00;101166.20;101586;1317;60834;-67
2021/12/17 04:23:32;;;;;;;13.80;2.00;;;;;;;1.66;100.00;101173.12;101704;1317;73426;-67
2021/12/17 04:26:23;;;;;;;8.90;1.80;;;;;;;1.68;100.00;101176.74;101731;1316;68060;-67
2021/12/17 04:29:21;;;;;;;12.10;2.30;;;;;;;1.69;100.00;101171.48;101942;1317;72935;-67
2021/12/17 04:32:10;;;;;;;11.10;2.00;;;;;;;1.69;100.00;101173.06;101524;1319;59740;-67
2021/12/17 04:35:00;;;;;;;15.40;2.10;;;;;;;1.67;100.00;101165.92;101725;1316;60768;-67
2021/12/17 04:37:56;;;;;;;15.70;2.50;;;;;;;1.66;100.00;101174.70;101508;1316;73949;-67
2021/12/17 04:40:47;;;;;;;14.00;2.70;;;;;;;1.66;100.00;101171.90;101752;1316;68498;-66
2021/12/17 04:43:46;;;;;;;13.30;2.40;;;;;;;1.66;100.00;101184.31;101740;1319;73077;-67
2021/12/17 04:46:51;;;;;;;8.90;1.80;;;;;;;1.68;100.00;101182.54;101897;1320;59749;-66
2021/12/17 04:59:11;;;;;;;14.60;2.70;;;;;;;1.64;100.00;101193.11;101746;1319;71735;-68
2021/12/17 05:02:02;;;;;;;12.60;2.10;;;;;;;1.64;100.00;101193.13;101908;1317;59675;-68
2021/12/17 05:05:04;;;;;;;12.70;1.90;;;;;;;1.65;100.00;101190.14;101816;1320;59711;-68
2021/12/17 05:07:58;;;;;;;11.50;2.10;;;;;;;1.67;100.00;101187.97;101783;1319;73423;-68
2021/12/17 05:11:17;;;;;;;15.30;2.90;;;;;;;1.69;100.00;101193.20;101693;1316;68154;-68
2021/12/17 05:20:32;;;;;;;13.10;2.20;;;;;;;1.69;100.00;101178.11;101724;1316;60519;-68
2021/12/17 05:23:33;;;;;;;12.70;2.10;;;;;;;1.73;100.00;101175.08;102006;1320;71134;-68
2021/12/17 05:26:23;;;;;;;13.30;2.10;;;;;;;1.78;100.00;101176.53;101712;1322;68359;-68
2021/12/17 05:29:15;;;;;;;10.70;1.80;;;;;;;1.81;100.00;101172.77;101611;1319;73060;-68
2021/12/17 05:32:05;;;;;;;12.10;2.70;;;;;;;1.84;99.96;101173.05;101693;1316;59720;-68
2021/12/17 05:34:54;;;;;;;7.60;2.00;;;;;;;1.85;99.76;101172.50;102005;1317;60396;-68
2021/12/17 05:37:44;;;;;;;11.80;1.90;;;;;;;1.85;99.50;101170.75;101269;1317;1003706;-68
2021/12/17 05:40:33;;;;;;;11.20;2.00;;;;;;;1.85;99.59;101174.42;101900;1316;68653;-68
2021/12/17 05:43:22;;;;;;;11.30;2.20;;;;;;;1.87;99.21;101171.59;101675;1319;73220;-68
2021/12/17 05:46:13;;;;;;;9.70;1.90;;;;;;;1.90;98.98;101167.67;101682;1319;59823;-68
2021/12/17 05:49:02;;;;;;;12.70;2.00;;;;;;;1.93;98.71;101168.83;101797;1320;59609;-68
2021/12/17 05:51:53;;;;;;;7.60;2.00;;;;;;;1.94;98.64;101177.72;101725;1316;73833;-68
2021/12/17 05:54:42;;;;;;;10.00;1.90;;;;;;;1.92;98.53;101175.34;101958;1317;68394;-68
2021/12/17 05:57:34;;;;;;;10.30;2.00;;;;;;;1.89;98.41;101175.91;101772;1316;72884;-67
2021/12/17 06:00:24;;;;;;;7.50;1.80;;;;;;;1.87;98.36;101172.64;102071;1316;59695;-67
2021/12/17 06:03:13;;;;;;;14.20;2.00;;;;;;;1.87;98.19;101179.11;101749;1316;60812;-68
2021/12/17 06:06:27;;;;;;;8.10;1.90;;;;;;;1.89;98.41;101184.86;101769;1317;73362;-68
2021/12/17 06:09:15;;;;;;;7.90;2.10;;;;;;;1.89;98.17;101185.02;101892;1316;67196;-68
2021/12/17 06:12:06;;;;;;;15.30;2.70;;;;;;;1.90;98.03;101186.23;101690;1316;71609;-68
2021/12/17 06:14:55;;;;;;;9.40;1.80;;;;;;;1.89;97.90;101188.16;101701;1316;59748;-68
2021/12/17 06:17:45;;;;;;;12.90;2.30;;;;;;;1.88;97.96;101190.30;101757;1317;59627;-68
2021/12/17 06:20:36;;;;;;;10.70;2.00;;;;;;;1.88;97.75;101188.73;101935;1319;70760;-68
2021/12/17 06:23:25;;;;;;;12.40;2.50;;;;;;;1.88;97.73;101192.21;101972;1322;68372;-68
2021/12/17 06:26:14;;;;;;;8.80;2.20;;;;;;;1.90;97.64;101196.56;102033;1319;73191;-68
2021/12/17 06:29:04;;;;;;;11.90;2.10;;;;;;;1.90;97.60;101212.48;101887;1317;59831;-68
2021/12/17 06:31:53;;;;;;;11.70;2.10;;;;;;;1.89;97.60;101218.98;101876;1316;59618;-67
2021/12/17 06:34:42;;;;;;;9.60;2.00;;;;;;;1.88;97.58;101218.48;101847;1320;73654;-68
2021/12/17 06:37:31;;;;;;;12.60;1.60;;;;;;;1.86;97.44;101225.34;101810;1316;68261;-67
2021/12/17 06:40:20;;;;;;;10.20;2.10;;;;;;;1.85;97.45;101232.73;101652;1319;72199;-68
2021/12/17 06:43:09;;;;;;;10.00;1.90;;;;;;;1.84;97.44;101236.41;101659;1319;59612;-68
2021/12/17 06:46:13;;;;;;;10.60;1.90;;;;;;;1.85;97.39;101240.94;101786;1317;59702;-67
2021/12/17 06:49:20;;;;;;;7.00;1.70;;;;;;;1.85;97.48;101244.80;101998;1316;73994;-67
2021/12/17 07:17:36;;;;;;;11.30;2.20;;;;;;;2.01;96.41;101224.12;102095;1317;59974;-69
2021/12/17 07:23:49;;;;;;;9.50;2.20;;;;;;;2.09;96.21;101240.92;102162;1316;68858;-69
2021/12/17 07:33:21;;;;;;;10.70;2.20;;;;;;;2.15;95.35;101258.46;102293;1322;61210;-68
2021/12/17 07:36:22;;;;;;;11.30;2.30;;;;;;;2.16;95.45;101258.61;102134;1316;72700;-68
2021/12/17 07:39:16;;;;;;;9.90;2.80;;;;;;;2.19;95.44;101263.27;101763;1320;68112;-68
2021/12/17 07:42:15;;;;;;;11.50;2.30;;;;;;;2.21;95.26;101260.76;102114;1319;73088;-68
2021/12/17 07:45:17;;;;;;;13.70;2.80;;;;;;;2.25;94.92;101269.42;102037;1316;59635;-67
2021/12/17 07:48:17;;;;;;;10.20;2.00;;;;;;;2.29;95.11;101269.88;102223;1323;60996;-68
2021/12/17 07:51:21;;;;;;;10.20;2.30;;;;;;;2.31;94.67;101269.46;101842;1319;75074;-68
2021/12/17 07:54:17;;;;;;;8.30;2.00;;;;;;;2.32;94.74;101267.33;101658;1319;67962;-68
2021/12/17 07:57:07;;;;;;;11.20;2.60;;;;;;;2.34;94.31;101267.28;100702;1323;1003094;-68
2021/12/17 07:59:58;;;;;;;13.20;2.30;;;;;;;2.38;94.30;101264.03;101881;1319;286321;-68
2021/12/17 08:02:47;;;;;;;9.40;2.00;;;;;;;2.43;94.24;101268.64;101845;1316;60786;-68
2021/12/17 08:05:55;;;;;;;7.00;1.80;;;;;;;2.49;94.02;101271.84;101783;1316;73488;-68
2021/12/17 08:08:44;;;;;;;9.40;2.10;;;;;;;2.51;93.87;101277.74;101911;1317;67086;-68
2021/12/17 08:11:44;;;;;;;8.60;2.00;;;;;;;2.58;93.83;101280.20;101713;1319;71599;-68
2021/12/17 08:14:34;;;;;;;9.10;2.20;;;;;;;2.62;93.79;101277.30;101724;1316;59767;-68
2021/12/17 08:45:13;;;;;;;8.70;2.10;;;;;;;11.75;64.44;101249.66;101438;1322;68660;-70
2021/12/17 08:48:07;;;;;;;8.70;2.00;;;;;;;12.81;60.12;101237.34;101491;1322;71911;-69
2021/12/17 08:51:06;;;;;;;11.10;4.00;;;;;;;13.66;58.64;101241.74;101557;1328;59458;-71
2021/12/17 08:53:57;;;;;;;19.00;8.90;;;;;;;14.33;54.48;101240.28;101274;1322;59650;-70
2021/12/17 08:56:49;;;;;;;8.20;2.70;;;;;;;14.87;50.52;101245.36;101122;1326;73820;-71
2021/12/17 08:59:40;;;;;;;8.90;2.40;;;;;;;15.10;48.09;101244.10;101503;1323;68633;-71
2021/12/17 09:02:34;;;;;;;9.20;2.50;;;;;;;15.39;46.92;101243.84;101332;1322;72964;-70
2021/12/17 09:05:48;;;;;;;10.50;4.20;;;;;;;15.82;46.85;101238.27;101180;1322;59863;-71
2021/12/17 09:08:40;;;;;;;7.40;2.10;;;;;;;16.14;44.49;101233.89;101895;1317;61389;-68
2021/12/17 09:11:31;;;;;;;7.50;1.70;;;;;;;16.44;43.21;101224.02;102105;1320;71818;-68
2021/12/17 09:14:28;;;;;;;7.80;2.00;;;;;;;16.52;41.54;101233.75;101909;1321;68539;-68
2021/12/17 09:17:40;;;;;;;6.70;1.70;;;;;;;16.75;41.48;101234.81;102058;1317;73497;-68
2021/12/17 09:20:30;;;;;;;8.10;2.20;;;;;;;17.09;41.58;101238.46;101902;1316;59626;-68
2021/12/17 09:23:19;;;;;;;8.00;2.20;;;;;;;17.49;40.49;101236.02;101899;1320;61024;-68
2021/12/17 09:26:16;;;;;;;9.00;2.10;;;;;;;17.67;38.35;101233.52;101853;1316;73404;-69
2021/12/17 09:29:04;;;;;;;6.90;1.70;;;;;;;18.14;38.73;101226.63;101860;1317;67256;-68
2021/12/17 09:31:53;;;;;;;7.10;1.90;;;;;;;18.58;36.39;101229.40;101771;1316;73725;-69
2021/12/17 09:34:42;;;;;;;8.50;2.20;;;;;;;19.05;36.58;101239.84;101871;1319;59620;-68
2021/12/17 09:37:31;;;;;;;8.30;2.50;;;;;;;19.41;35.96;101240.15;101906;1316;60118;-68
2021/12/17 09:40:20;;;;;;;8.60;2.20;;;;;;;19.61;34.02;101238.17;102058;1317;73439;-68
2021/12/17 09:43:10;;;;;;;9.30;2.30;;;;;;;19.76;33.48;101243.39;101946;1317;67280;-68
2021/12/17 09:46:01;;;;;;;7.50;1.90;;;;;;;19.87;33.40;101241.58;101912;1319;73282;-68
2021/12/17 09:48:50;;;;;;;9.10;2.10;;;;;;;20.00;32.95;101234.61;101949;1319;59647;-68
2021/12/17 09:51:40;;;;;;;7.70;1.60;;;;;;;20.24;32.75;101230.39;102136;1317;59621;-69
2021/12/17 09:54:28;;;;;;;8.40;2.00;;;;;;;20.61;32.56;101237.33;101789;1320;73424;-68
2021/12/17 09:57:20;;;;;;;8.50;1.90;;;;;;;20.71;31.22;101237.59;101829;1316;67108;-68
2021/12/17 10:00:16;;;;;;;9.70;1.90;;;;;;;20.84;31.30;101242.40;101782;1316;71949;-68
2021/12/17 10:03:09;;;;;;;7.00;1.50;;;;;;;20.92;31.06;101240.80;102162;1316;59723;-69
2021/12/17 10:05:59;;;;;;;8.30;1.60;;;;;;;21.08;30.51;101243.60;101951;1321;59729;-68
2021/12/17 10:08:48;;;;;;;6.90;1.70;;;;;;;21.23;30.17;101239.80;101852;1320;73435;-69
2021/12/17 10:11:38;;;;;;;7.10;1.60;;;;;;;21.11;29.74;101240.88;101829;1317;68366;-68
2021/12/17 10:14:27;;;;;;;6.90;1.70;;;;;;;21.11;29.43;101235.47;101793;1317;72130;-68
2021/12/17 10:17:16;;;;;;;8.30;1.50;;;;;;;20.80;29.61;101237.63;101787;1317;59770;-69
2021/12/17 10:20:07;;;;;;;6.90;1.50;;;;;;;21.01;29.95;101235.64;102093;1316;59291;-69
2021/12/17 10:23:06;;;;;;;8.00;1.90;;;;;;;20.87;29.92;101230.52;101912;1317;73725;-68
2021/12/17 10:25:56;;;;;;;8.30;1.50;;;;;;;20.71;29.27;101222.85;101805;1316;66375;-69
2021/12/17 10:29:21;;;;;;;7.00;1.60;;;;;;;20.49;29.84;101218.55;102051;1317;71968;-68
2021/12/17 10:32:21;;;;;;;6.10;1.20;;;;;;;20.85;29.86;101217.59;101500;1328;59898;-68
2021/12/17 10:35:17;;;;;;;6.30;1.50;;;;;;;20.77;29.66;101220.40;101295;1323;60744;-69
2021/12/17 10:38:10;;;;;;;5.90;1.20;;;;;;;20.67;29.33;101213.33;101213;1323;73447;-68
2021/12/17 10:41:06;;;;;;;7.20;1.70;;;;;;;20.90;29.64;101208.25;101208;1328;67295;-68
2021/12/17 10:44:07;;;;;;;7.90;1.40;;;;;;;20.80;29.04;101206.59;101221;1327;72194;-68
2021/12/17 10:47:19;;;;;;;8.90;1.60;;;;;;;20.98;28.86;101203.83;101145;1328;59782;-68
2021/12/17 10:50:08;;;;;;;8.20;2.00;;;;;;;20.77;28.83;101206.28;101199;1329;60902;-69
2021/12/17 10:52:57;;;;;;;8.00;2.00;;;;;;;20.68;29.33;101210.69;101284;1328;73355;-68
2021/12/17 10:55:46;;;;;;;6.50;1.50;;;;;;;20.71;29.13;101216.27;101283;1328;68405;-69
2021/12/17 10:58:35;;;;;;;7.20;1.80;;;;;;;20.60;29.14;101210.73;101384;1325;71933;-68
2021/12/17 11:01:33;;;;;;;7.40;1.60;;;;;;;20.38;29.09;101210.98;101105;1325;59801;-69
2021/12/17 11:04:29;;;;;;;6.90;1.60;;;;;;;20.20;29.45;101215.50;101246;1328;59617;-68
2021/12/17 11:07:19;;;;;;;6.70;1.30;;;;;;;20.14;29.50;101217.04;101362;1325;73696;-68
2021/12/17 11:10:07;;;;;;;7.00;1.60;;;;;;;19.89;30.49;101226.98;101961;1316;67104;-69
2021/12/17 11:12:56;;;;;;;6.50;1.50;;;;;;;19.30;30.78;101223.95;101804;1317;71931;-68
2021/12/17 11:15:49;;;;;;;9.90;1.90;;;;;;;19.01;31.20;101219.18;101867;1316;59690;-68
2021/12/17 11:18:38;;;;;;;9.60;1.90;;;;;;;18.95;31.50;101215.76;101971;1317;59660;-69
2021/12/17 11:21:28;;;;;;;7.20;2.00;;;;;;;18.43;31.75;101209.26;101872;1322;72210;-68
2021/12/17 11:24:17;;;;;;;7.50;1.80;;;;;;;17.94;32.62;101213.71;101838;1317;68360;-67
2021/12/17 11:27:08;;;;;;;8.90;2.30;;;;;;;17.14;33.71;101218.42;101865;1320;73037;-68
2021/12/17 11:29:57;;;;;;;8.30;1.90;;;;;;;16.69;34.72;101223.74;101758;1316;59583;-68
2021/12/17 11:32:48;;;;;;;7.50;1.80;;;;;;;16.52;35.45;101228.20;101814;1317;60754;-70
2021/12/17 11:35:46;;;;;;;8.20;1.90;;;;;;;16.46;35.40;101228.81;101785;1317;71381;-68
2021/12/17 11:39:28;;;;;;;6.00;1.40;;;;;;;15.86;36.10;101226.42;101799;1316;65969;-68
2021/12/17 11:42:54;;;;;;;8.00;1.70;;;;;;;15.46;37.43;101238.77;101720;1320;73014;-67
2021/12/17 11:45:55;;;;;;;8.20;1.80;;;;;;;14.82;38.04;101239.82;101821;1324;59803;-67
2021/12/17 11:48:59;;;;;;;8.50;1.60;;;;;;;14.49;38.92;101244.04;101652;1317;59719;-67
2021/12/17 11:51:55;;;;;;;6.70;1.70;;;;;;;14.43;39.23;101245.08;101655;1317;72394;-67
2021/12/17 11:54:44;;;;;;;9.90;2.20;;;;;;;13.87;40.31;101244.88;101798;1316;66805;-68
2021/12/17 11:57:42;;;;;;;8.30;1.80;;;;;;;13.66;41.13;101242.64;102088;1317;73326;-68
2021/12/17 12:00:41;;;;;;;6.90;1.70;;;;;;;13.16;41.69;101244.40;101851;1317;59765;-67
2021/12/17 12:03:29;;;;;;;6.50;1.60;;;;;;;12.43;43.30;101236.50;102177;1317;60193;-67
2021/12/17 12:06:34;;;;;;;6.50;1.70;;;;;;;12.16;44.19;101235.77;102298;1320;72459;-68
2021/12/17 12:10:04;;;;;;;6.90;1.70;;;;;;;11.77;45.28;101241.19;101920;1320;68054;-67
2021/12/17 12:12:52;;;;;;;6.30;1.70;;;;;;;11.33;46.19;101257.59;102199;1318;73519;-67
2021/12/17 12:15:41;;;;;;;8.60;1.50;;;;;;;11.45;46.81;101252.73;101969;1316;59622;-67
2021/12/17 12:18:50;;;;;;;8.70;1.90;;;;;;;11.56;46.50;101248.15;101923;1316;60673;-67
2021/12/17 12:21:40;;;;;;;6.70;1.60;;;;;;;11.49;46.73;101252.30;101859;1317;72236;-67
2021/12/17 12:24:28;;;;;;;9.30;2.00;;;;;;;11.25;46.93;101245.26;101683;1317;67028;-67
2021/12/17 12:27:28;;;;;;;6.80;1.90;;;;;;;10.86;47.97;101251.17;101757;1317;70733;-67
2021/12/17 12:30:35;;;;;;;8.50;2.10;;;;;;;10.25;49.12;101252.60;101728;1316;59736;-67
2021/12/17 12:33:23;;;;;;;8.30;1.80;;;;;;;9.51;51.34;101260.60;101688;1316;61049;-68
2021/12/17 12:36:13;;;;;;;7.90;2.10;;;;;;;8.91;53.06;101264.83;101743;1317;73522;-67
2021/12/17 12:39:19;;;;;;;6.90;1.50;;;;;;;8.39;54.70;101266.86;101818;1316;67594;-67
2021/12/17 12:42:22;;;;;;;9.10;1.70;;;;;;;7.71;57.49;101276.45;101844;1316;74587;-66
2021/12/17 12:45:13;;;;;;;9.80;1.80;;;;;;;7.16;59.40;101275.91;102059;1317;59612;-67
2021/12/17 12:48:02;;;;;;;9.40;2.60;;;;;;;6.80;60.62;101279.94;101720;1319;59583;-66
2021/12/17 12:51:14;;;;;;;9.30;2.50;;;;;;;6.49;62.03;101275.05;101805;1317;72771;-66
2021/12/17 12:54:06;;;;;;;8.80;2.20;;;;;;;6.13;63.84;101280.95;101919;1317;68570;-66
2021/12/17 12:56:56;;;;;;;7.70;2.00;;;;;;;5.86;65.25;101282.84;101756;1317;72941;-67
2021/12/17 12:59:46;;;;;;;9.20;1.90;;;;;;;5.63;65.95;101295.98;101703;1317;59714;-67
2021/12/17 13:02:36;;;;;;;8.30;1.90;;;;;;;5.43;67.00;101299.91;101955;1316;59724;-67
2021/12/17 13:05:25;;;;;;;7.60;1.90;;;;;;;5.26;67.73;101300.37;101943;1322;73882;-66
2021/12/17 13:08:16;;;;;;;6.30;1.70;;;;;;;5.10;68.50;101299.33;101716;1316;66247;-66
2021/12/17 13:11:07;;;;;;;9.40;2.20;;;;;;;4.96;69.84;101304.23;101671;1317;71576;-66
2021/12/17 13:13:58;;;;;;;9.10;2.00;;;;;;;4.85;70.02;101315.16;101991;1322;59801;-66
2021/12/17 13:17:06;;;;;;;7.20;1.60;;;;;;;4.71;71.04;101320.19;101708;1317;61041;-66
2021/12/17 13:23:18;;;;;;;7.90;1.70;;;;;;;4.41;73.11;101344.01;101928;1316;68029;-66
2021/12/17 13:26:11;;;;;;;12.40;3.20;;;;;;;4.31;73.55;101357.68;101898;1318;72999;-66
2021/12/17 13:29:05;;;;;;;7.90;1.70;;;;;;;4.23;73.91;101364.06;101898;1317;59708;-66
2021/12/17 13:32:05;;;;;;;8.50;1.90;;;;;;;4.18;73.81;101354.02;101668;1320;59618;-66
2021/12/17 13:34:56;;;;;;;10.60;1.80;;;;;;;4.14;74.34;101354.87;101694;1317;74230;-66
2021/12/17 13:37:45;;;;;;;11.00;2.20;;;;;;;4.08;74.86;101359.59;101732;1317;68565;-67
2021/12/17 13:40:36;;;;;;;8.60;2.00;;;;;;;4.02;75.50;101370.15;101667;1322;71377;-66
2021/12/17 13:43:30;;;;;;;11.00;2.00;;;;;;;3.96;75.80;101367.52;101705;1317;59836;-66
2021/12/17 13:46:19;;;;;;;11.60;2.30;;;;;;;3.88;75.84;101365.29;101679;1321;59690;-67
2021/12/17 13:49:09;;;;;;;8.20;2.10;;;;;;;3.82;76.46;101355.80;101738;1321;71940;-66
2021/12/17 13:51:58;;;;;;;9.70;2.10;;;;;;;3.73;77.78;101356.95;101666;1316;68198;-66
2021/12/17 13:54:49;;;;;;;9.10;1.70;;;;;;;3.64;78.27;101359.80;101739;1317;72783;-66
2021/12/17 13:57:39;;;;;;;13.20;2.30;;;;;;;3.55;79.06;101367.62;101692;1317;59717;-67
2021/12/17 14:00:39;;;;;;;9.40;2.40;;;;;;;3.48;78.85;101378.52;101019;1317;1003060;-67
2021/12/17 14:03:33;;;;;;;14.60;3.20;;;;;;;3.42;79.01;101377.79;101651;1317;73548;-67
2021/12/17 14:06:27;;;;;;;11.00;2.90;;;;;;;3.38;79.44;101375.45;101650;1320;67169;-67
2021/12/17 14:09:16;;;;;;;10.30;3.20;;;;;;;3.33;80.42;101378.55;101896;1316;72094;-67
2021/12/17 14:12:33;;;;;;;16.80;4.60;;;;;;;3.30;80.40;101377.95;101894;1316;60068;-67
2021/12/17 14:15:45;;;;;;;12.50;2.50;;;;;;;3.24;80.51;101372.13;101871;1316;60214;-66
2021/12/17 14:18:35;;;;;;;11.00;2.10;;;;;;;3.19;80.69;101382.41;101540;1320;73648;-66
2021/12/17 14:21:29;;;;;;;8.60;2.50;;;;;;;3.14;80.99;101390.63;101817;1316;68544;-66
2021/12/17 14:24:29;;;;;;;10.80;2.20;;;;;;;3.08;80.92;101380.27;101998;1316;71754;-67
2021/12/17 14:27:18;;;;;;;9.50;1.90;;;;;;;3.01;82.43;101375.33;101903;1316;59746;-66
2021/12/17 14:30:08;;;;;;;10.30;2.20;;;;;;;2.99;83.14;101381.19;101832;1316;59695;-68
2021/12/17 14:32:57;;;;;;;10.20;2.20;;;;;;;2.94;82.16;101386.73;101724;1316;73524;-67
2021/12/17 14:35:55;;;;;;;11.90;2.30;;;;;;;2.89;82.30;101381.79;101730;1317;67032;-67
2021/12/17 14:39:05;;;;;;;10.40;2.20;;;;;;;2.83;82.68;101382.27;101761;1316;72350;-66
2021/12/17 14:41:59;;;;;;;10.10;1.90;;;;;;;2.78;83.50;101381.35;101911;1316;59719;-67
2021/12/17 14:44:53;;;;;;;10.50;2.50;;;;;;;2.73;83.84;101394.77;101964;1316;59817;-67
2021/12/17 14:47:52;;;;;;;9.10;2.20;;;;;;;2.69;85.14;101402.95;101780;1317;73714;-67
2021/12/17 15:03:49;;;;;;;9.90;2.40;;;;;;;2.44;85.94;101398.79;102233;1316;73014;-67
2021/12/17 15:06:16;;;;;;;11.60;2.60;;;;;;;2.42;86.63;101386.92;101958;1316;68566;-66
2021/12/17 15:09:05;;;;;;;9.10;2.20;;;;;;;2.42;86.50;101396.55;101657;1319;72720;-67
2021/12/17 15:11:59;;;;;;;10.10;2.30;;;;;;;2.39;86.68;101412.73;101929;1321;59832;-67
2021/12/17 15:14:48;;;;;;;13.50;3.60;;;;;;;2.39;87.29;101410.29;101899;1317;59609;-66
2021/12/17 15:17:38;;;;;;;10.50;2.60;;;;;;;2.36;87.56;101406.14;101814;1317;72992;-67
2021/12/17 15:20:44;;;;;;;12.10;3.00;;;;;;;2.34;87.29;101406.89;101980;1316;66923;-66
2021/12/17 15:23:33;;;;;;;12.00;3.20;;;;;;;2.31;87.38;101415.72;101771;1322;71755;-66
2021/12/17 15:26:24;;;;;;;9.70;2.90;;;;;;;2.27;87.29;101414.23;101134;1316;1003015;-67
2021/12/17 15:29:13;;;;;;;10.00;2.80;;;;;;;2.24;87.56;101409.57;101752;1316;59650;-67
2021/12/17 15:32:03;;;;;;;10.10;2.80;;;;;;;2.22;87.88;101410.48;101763;1317;72681;-67
2021/12/17 15:34:53;;;;;;;10.30;2.90;;;;;;;2.24;88.23;101405.54;101739;1317;68623;-67
2021/12/17 15:37:43;;;;;;;7.80;2.50;;;;;;;2.22;88.30;101409.97;101771;1317;72112;-66
2021/12/17 15:40:31;;;;;;;9.50;2.40;;;;;;;2.19;88.12;101414.21;101711;1317;59788;-67
2021/12/17 15:43:23;;;;;;;10.90;2.60;;;;;;;2.15;88.32;101415.88;101824;1317;61169;-67
2021/12/17 15:46:12;;;;;;;10.50;2.50;;;;;;;2.11;88.24;101417.71;102024;1317;72175;-67
2021/12/17 15:49:00;;;;;;;14.60;3.50;;;;;;;2.05;88.59;101419.41;101172;1320;1003186;-67
2021/12/17 15:51:50;;;;;;;15.40;3.90;;;;;;;2.00;88.89;101415.66;101806;1322;72834;-67
2021/12/17 15:54:43;;;;;;;16.30;4.40;;;;;;;1.98;89.37;101414.30;101771;1316;60548;-67
2021/12/17 15:57:32;;;;;;;17.40;5.60;;;;;;;1.96;90.40;101415.92;101988;1319;60973;-67
2021/12/17 16:00:26;;;;;;;16.80;5.00;;;;;;;2.02;90.51;101417.55;101538;1316;73383;-67
2021/12/17 16:03:20;;;;;;;18.50;5.40;;;;;;;2.00;89.97;101421.77;102125;1316;67356;-67
2021/12/17 16:06:10;;;;;;;18.80;5.20;;;;;;;1.99;89.93;101429.70;101765;1317;73662;-67
2021/12/17 16:09:04;;;;;;;17.30;5.10;;;;;;;1.95;90.23;101427.33;101770;1316;59819;-66
2021/12/17 16:12:05;;;;;;;21.10;4.70;;;;;;;1.90;90.51;101423.21;101764;1317;59681;-67
2021/12/17 16:21:15;;;;;;;16.00;4.90;;;;;;;1.75;92.06;101424.39;102035;1317;71689;-66
2021/12/17 16:24:05;;;;;;;22.70;6.70;;;;;;;1.73;91.70;101422.31;101868;1316;59812;-66
2021/12/17 16:26:54;;;;;;;14.40;4.50;;;;;;;1.73;92.50;101426.36;102036;1320;60965;-66
2021/12/17 16:29:44;;;;;;;16.90;5.40;;;;;;;1.71;92.17;101430.95;102130;1317;73252;-66
2021/12/17 16:32:33;;;;;;;21.80;6.10;;;;;;;1.67;92.03;101436.79;101863;1316;67114;-66
2021/12/17 16:35:22;;;;;;;16.50;5.10;;;;;;;1.64;91.90;101438.59;101811;1318;73068;-67
2021/12/17 16:38:12;;;;;;;16.80;5.40;;;;;;;1.64;91.98;101440.35;101723;1316;59728;-66